CST,Max TemperatureF,Mean TemperatureF,Min TemperatureF,Max Dew PointF,MeanDew PointF,Min DewpointF,Max Humidity, Mean Humidity, Min Humidity, Max Sea Level PressureIn, Mean Sea Level PressureIn, Min Sea Level PressureIn, Max VisibilityMiles, Mean VisibilityMiles, Min VisibilityMiles, Max Wind SpeedMPH, Mean Wind SpeedMPH, Max Gust SpeedMPH,PrecipitationIn, CloudCover, Events, WindDirDegrees
2013-11-1,42,38,35,36,33,28,93,82,66,29.84,29.62,29.40,10,9,5,16,7,21,0.00,7,,315
2013-11-2,44,35,26,32,28,25,93,73,49,30.10,30.01,29.84,10,10,10,16,5,21,0.00,2,,326
2013-11-3,50,38,26,32,30,25,100,71,50,30.11,30.01,29.91,10,10,10,18,6,28,0.00,1,,138
2013-11-4,44,38,32,41,34,30,100,77,61,30.13,29.91,29.82,10,10,5,14,9,21,0.29,6,Rain,189
2013-11-5,37,32,26,30,27,21,100,83,52,30.24,30.16,30.07,10,8,1,7,2,,0.09,5,Snow,263
2013-11-6,41,34,26,30,24,18,93,72,42,30.15,30.08,30.03,10,10,3,14,4,20,0.00,5,Snow,314
2013-11-7,37,29,21,27,22,19,93,76,48,30.21,30.18,30.15,10,10,7,12,2,,0.00,4,,284
2013-11-8,37,28,19,34,25,16,100,84,65,30.17,29.92,29.58,10,8,3,12,3,21,0.03,5,Rain-Snow,130
2013-11-9,37,35,33,34,30,25,93,78,65,30.17,29.87,29.59,10,10,7,20,9,33,0.00,8,,289
2013-11-10,37,32,28,28,27,23,81,73,65,30.31,30.21,30.10,10,10,10,18,9,28,0.00,5,,267
2013-11-11,32,23,14,25,10,7,75,62,47,30.71,30.46,30.15,10,10,10,16,11,25,0.00,4,,343
2013-11-12,28,20,12,14,8,5,79,62,37,30.74,30.63,30.39,10,10,10,10,5,,0.00,2,,244
2013-11-13,44,32,19,30,22,12,87,70,49,30.39,30.02,29.84,10,10,10,17,8,24,0.00,0,,206
2013-11-14,50,39,28,36,31,27,100,81,54,29.84,29.79,29.73,10,10,7,8,2,,0.00,1,,216
2013-11-15,50,37,24,36,32,23,100,78,54,29.83,29.75,29.62,10,9,1,10,3,,0.00,1,,176
2013-11-16,42,38,35,41,36,32,100,89,75,29.62,29.42,29.27,10,6,0,12,5,16,0.14,6,Fog-Rain-Thunderstorm,150
2013-11-17,42,35,28,43,33,21,100,86,70,29.77,29.45,29.27,10,8,0,22,9,34,0.00,8,Fog,281
2013-11-18,32,24,17,21,19,14,93,76,64,30.24,30.08,29.79,10,10,10,18,12,26,0.00,6,,307
2013-11-19,41,27,17,28,22,14,93,75,60,30.27,30.07,29.89,10,10,10,15,5,21,0.00,0,,141
2013-11-20,42,38,35,32,28,23,87,64,49,30.04,29.93,29.87,10,10,5,16,11,22,0.00,8,,165
2013-11-21,35,28,21,32,22,10,93,77,63,30.52,30.28,30.05,10,7,0,17,6,25,0.00,8,Fog,340
2013-11-22,32,22,12,16,8,0,86,63,32,30.64,30.51,30.42,10,10,5,21,9,29,0.00,2,Snow,294
2013-11-23,17,11,3,3,1,-4,85,64,42,30.81,30.73,30.64,10,10,10,14,9,23,0.00,1,,327
2013-11-24,32,16,1,18,9,-2,85,62,44,30.68,30.26,29.87,10,10,10,20,8,28,0.00,1,,194
2013-11-25,35,30,26,27,21,12,86,64,51,30.07,29.93,29.82,10,10,10,23,12,31,0.00,6,,273
2013-11-26,26,19,12,19,7,3,74,63,49,30.37,30.23,30.07,10,9,4,22,12,31,0.00,5,Snow,326
2013-11-27,21,12,3,10,6,0,85,71,54,30.38,30.23,30.07,10,10,7,9,3,,0.00,5,Snow,154
2013-11-28,26,16,6,14,10,3,85,70,51,30.50,30.29,30.06,10,10,7,16,4,18,0.00,5,Snow,321
2013-11-29,32,18,5,21,12,1,86,72,55,30.50,30.35,30.13,10,10,7,14,4,22,0.00,3,,160
2013-11-30,35,27,19,23,20,16,93,76,60,30.18,30.07,30.02,10,10,7,9,3,,0.00,1,,320